Time;durP1;ratioP1;P1;durP2;ratioP2;P2;SDS_P1;SDS_P2;PMS_P1;PMS_P2;Temp;Humidity;BMP_temperature;BMP_pressure;BME280_temperature;BME280_humidity;BME280_pressure;Samples;Min_cycle;Max_cycle;Signal;HPM_P1;HPM_P2
2022/01/25 00:15:03;;;;;;;;;;;;;;;5.46;84.50;103367.69;4788925;30;20059;-46
2022/01/25 00:30:21;;;;;;;33.17;29.77;;;;;;;5.45;84.09;103369.56;4846254;29;20408;-46
2022/01/25 00:32:46;;;;;;;31.98;28.65;;;;;;;5.45;84.37;103366.03;4861684;29;20060;-48
2022/01/25 00:35:14;;;;;;;34.45;30.88;;;;;;;5.46;83.87;103370.41;4861944;29;20504;-47
2022/01/25 00:37:41;;;;;;;31.67;28.48;;;;;;;5.44;83.94;103372.44;4862519;29;20049;-47
2022/01/25 00:40:09;;;;;;;33.60;30.20;;;;;;;5.42;83.85;103367.19;4862484;29;20136;-46
2022/01/25 00:42:37;;;;;;;35.28;31.75;;;;;;;5.43;84.01;103368.03;4861824;29;20052;-46
2022/01/25 00:45:05;;;;;;;34.35;30.85;;;;;;;5.43;83.48;103368.88;4861711;29;20090;-45
2022/01/25 00:47:32;;;;;;;34.47;30.98;;;;;;;5.39;83.42;103364.84;4862443;29;20049;-48
2022/01/25 00:50:00;;;;;;;33.80;30.30;;;;;;;5.35;83.06;103366.19;4861028;29;20049;-45
2022/01/25 00:55:14;;;;;;;33.35;28.83;;;;;;;5.26;83.88;103364.50;4862372;29;20042;-47
2022/01/25 00:57:42;;;;;;;33.30;29.95;;;;;;;5.29;84.30;103362.31;4863735;29;20053;-46
2022/01/25 01:00:11;;;;;;;33.15;29.83;;;;;;;5.34;84.25;103361.81;4862174;29;20057;-47
2022/01/25 01:02:39;;;;;;;33.38;29.92;;;;;;;5.38;84.13;103352.34;4845252;29;20041;-45
2022/01/25 01:05:07;;;;;;;33.63;30.23;;;;;;;5.40;83.47;103371.09;4860951;29;20504;-46
2022/01/25 01:07:35;;;;;;;32.63;29.30;;;;;;;5.35;83.29;103366.19;4843358;29;20045;-48
2022/01/25 01:10:04;;;;;;;34.42;30.88;;;;;;;5.36;83.62;103364.34;4842663;29;20046;-46
2022/01/25 01:15:29;;;;;;;33.72;30.08;;;;;;;5.35;83.42;103358.09;4860752;29;20049;-44
2022/01/25 01:29:13;;;;;;;35.78;32.25;;;;;;;5.40;83.09;103365.69;4861404;29;20057;-48
2022/01/25 01:31:58;;;;;;;35.50;31.67;;;;;;;5.39;83.29;103359.44;4845433;29;20041;-52
2022/01/25 01:40:18;;;;;;;35.60;32.00;;;;;;;5.52;83.10;103359.75;4860869;29;20046;-44
2022/01/25 01:48:02;;;;;;;35.17;31.60;;;;;;;5.49;83.17;103376.31;4860937;29;20050;-48
2022/01/25 01:50:33;;;;;;;36.33;32.40;;;;;;;5.49;83.03;103376.31;4844599;29;20048;-49
2022/01/25 01:53:03;;;;;;;36.17;32.55;;;;;;;5.47;82.86;103367.53;4860948;29;20056;-48
2022/01/25 01:55:31;;;;;;;36.53;32.75;;;;;;;5.42;83.03;103369.91;4860966;29;20049;-48
2022/01/25 01:57:59;;;;;;;35.28;31.58;;;;;;;5.41;83.61;103373.66;4859543;29;20060;-49
2022/01/25 02:00:32;;;;;;;35.53;31.95;;;;;;;5.42;83.76;103369.06;4861578;29;20068;-48
2022/01/25 02:03:01;;;;;;;34.13;30.52;;;;;;;5.44;84.04;103362.47;4860927;29;20076;-46
2022/01/25 02:05:30;;;;;;;35.25;31.70;;;;;;;5.48;84.09;103368.38;4861012;29;20117;-47
2022/01/25 02:07:58;;;;;;;34.40;30.80;;;;;;;5.50;83.87;103364.47;4860523;29;20056;-47
2022/01/25 02:10:26;;;;;;;34.28;30.77;;;;;;;5.50;83.70;103356.38;4861140;29;20041;-43
2022/01/25 02:12:53;;;;;;;38.63;33.67;;;;;;;5.52;83.71;103365.16;4844468;29;20056;-46
2022/01/25 02:15:24;;;;;;;35.90;32.22;;;;;;;5.46;83.56;103356.88;4860234;29;20046;-47
2022/01/25 02:23:27;;;;;;;35.53;31.83;;;;;;;5.43;84.38;103343.72;4860745;29;20072;-45
2022/01/25 02:25:58;;;;;;;34.42;31.13;;;;;;;5.44;84.47;103343.56;4860571;29;20458;-48
2022/01/25 02:28:29;;;;;;;35.92;32.33;;;;;;;5.45;84.80;103344.38;4860679;29;20042;-44
2022/01/25 02:30:58;;;;;;;39.20;35.35;;;;;;;5.46;84.33;103337.94;4860616;29;20046;-43
2022/01/25 02:33:26;;;;;;;37.13;33.28;;;;;;;5.41;84.32;103335.78;4861020;29;20133;-43
2022/01/25 02:35:56;;;;;;;34.95;31.48;;;;;;;5.37;84.37;103339.84;4860379;29;20049;-45
2022/01/25 02:38:28;;;;;;;35.00;31.25;;;;;;;5.36;84.75;103343.53;4860205;29;20421;-47
2022/01/25 02:40:57;;;;;;;36.75;33.13;;;;;;;5.36;85.20;103331.91;4844303;29;20054;-46
2022/01/25 02:43:26;;;;;;;37.50;33.50;;;;;;;5.41;85.16;103334.91;4860827;29;20512;-48
2022/01/25 02:48:56;;;;;;;39.17;35.30;;;;;;;5.47;84.40;103339.66;4860467;29;20046;-45
2022/01/25 02:51:39;;;;;;;39.50;35.33;;;;;;;5.47;84.29;103345.91;4841863;29;20054;-44
2022/01/25 02:54:08;;;;;;;37.28;33.38;;;;;;;5.46;84.26;103332.53;4842244;29;20441;-43
2022/01/25 02:56:37;;;;;;;39.08;34.97;;;;;;;5.43;84.08;103332.91;4850347;29;20052;-45
2022/01/25 02:59:05;;;;;;;40.00;35.95;;;;;;;5.40;84.35;103339.50;4863803;29;20500;-46
2022/01/25 03:01:34;;;;;;;39.85;34.65;;;;;;;5.35;84.22;103347.28;4863057;29;20049;-47
2022/01/25 03:04:03;;;;;;;39.65;35.55;;;;;;;5.30;84.59;103338.84;4863902;29;20531;-48
2022/01/25 03:06:31;;;;;;;40.58;36.28;;;;;;;5.25;84.53;103336.63;4864121;29;20049;-46
2022/01/25 03:08:59;;;;;;;37.78;34.05;;;;;;;5.27;84.83;103333.78;4863280;29;20515;-45
2022/01/25 03:11:26;;;;;;;37.55;33.75;;;;;;;5.32;84.99;103331.41;4863799;29;20049;-44
2022/01/25 03:13:57;;;;;;;38.28;34.28;;;;;;;5.36;84.76;103316.50;4863787;29;20492;-42
2022/01/25 03:16:47;;;;;;;39.78;35.53;;;;;;;5.40;84.62;103317.88;4863644;29;20510;-42
2022/01/25 03:24:55;;;;;;;42.28;37.83;;;;;;;5.47;83.78;103305.34;4863859;29;20057;-48
2022/01/25 03:27:22;;;;;;;42.88;37.35;;;;;;;5.45;83.60;103296.56;4863569;29;20061;-46
2022/01/25 03:29:50;;;;;;;43.25;38.70;;;;;;;5.40;83.63;103295.41;4863480;29;20046;-48
2022/01/25 03:32:17;;;;;;;43.53;39.00;;;;;;;5.36;83.81;103294.03;4863453;29;20046;-52
2022/01/25 03:34:45;;;;;;;42.88;38.20;;;;;;;5.33;84.07;103289.81;4863512;29;20053;-48
2022/01/25 03:37:12;;;;;;;42.72;38.22;;;;;;;5.29;84.01;103293.88;4863118;29;20049;-47
2022/01/25 03:39:40;;;;;;;42.78;36.90;;;;;;;5.28;84.29;103303.84;4863437;29;20045;-47
2022/01/25 03:42:10;;;;;;;41.03;36.58;;;;;;;5.30;84.33;103317.22;4863138;29;20045;-44
2022/01/25 03:44:39;;;;;;;41.28;36.95;;;;;;;5.34;84.36;103307.75;4863538;29;20548;-46
2022/01/25 03:47:11;;;;;;;45.20;38.97;;;;;;;5.38;84.31;103309.06;4861919;29;20057;-46
2022/01/25 03:49:51;;;;;;;46.10;41.00;;;;;;;5.42;84.01;103306.88;4862635;29;20496;-46
2022/01/25 03:52:25;;;;;;;43.80;39.30;;;;;;;5.41;83.51;103314.16;4864523;29;20101;-46
2022/01/25 03:54:52;;;;;;;45.28;40.47;;;;;;;5.36;83.16;103311.09;4864612;29;20412;-47
2022/01/25 03:57:20;;;;;;;45.05;40.13;;;;;;;5.30;83.32;103304.53;4863194;29;20504;-44
2022/01/25 03:59:48;;;;;;;48.78;39.28;;;;;;;5.26;83.66;103322.09;4862684;29;20065;-46
2022/01/25 04:02:16;;;;;;;43.65;39.05;;;;;;;5.27;84.02;103317.56;4863343;29;20057;-46
2022/01/25 04:04:50;;;;;;;44.60;39.80;;;;;;;5.30;84.01;103322.63;4862826;29;20116;-46
2022/01/25 04:07:26;;;;;;;45.63;40.63;;;;;;;5.33;83.36;103324.97;4862900;29;20102;-49
2022/01/25 04:09:54;;;;;;;;;;;;;;;5.34;83.54;103324.81;4863065;29;20049;-45
2022/01/25 04:12:21;;;;;;;47.15;41.92;;;;;;;5.35;83.21;103320.25;4862742;29;19930;-42
2022/01/25 04:14:49;;;;;;;45.13;39.70;;;;;;;5.32;83.38;103324.13;4862436;29;20046;-45
2022/01/25 04:17:20;;;;;;;43.40;38.80;;;;;;;5.31;83.98;103324.28;4862617;29;20130;-47
2022/01/25 04:20:09;;;;;;;44.50;39.63;;;;;;;5.29;84.00;103316.38;4862460;29;20061;-43
2022/01/25 04:25:21;;;;;;;44.95;40.08;;;;;;;5.26;84.10;103318.56;4852936;29;20046;-46
2022/01/25 04:27:49;;;;;;;42.78;37.88;;;;;;;5.26;84.73;103310.44;4862268;29;20408;-48
2022/01/25 04:30:16;;;;;;;44.90;40.20;;;;;;;5.31;84.61;103318.88;4862204;29;20052;-46
2022/01/25 04:32:51;;;;;;;44.03;39.22;;;;;;;5.34;84.63;103308.59;4861856;29;20041;-46
2022/01/25 04:49:21;;;;;;;47.20;41.67;;;;;;;5.44;83.63;103289.47;4862241;29;20056;-44
2022/01/25 04:54:34;;;;;;;48.03;42.85;;;;;;;5.42;83.74;103296.91;4861701;29;20512;-45
2022/01/25 04:57:17;;;;;;;45.22;40.30;;;;;;;5.41;83.53;103299.78;4861747;29;20557;-49
2022/01/25 05:02:31;;;;;;;48.03;41.97;;;;;;;5.40;83.81;103298.94;4861994;29;20050;-46
2022/01/25 05:05:09;;;;;;;48.22;39.92;;;;;;;5.40;83.76;103287.28;4861845;29;20046;-47
2022/01/25 05:07:54;;;;;;;52.70;45.03;;;;;;;5.38;83.45;103292.84;4861381;29;20038;-47
2022/01/25 05:10:22;;;;;;;50.63;45.25;;;;;;;5.30;83.31;103296.44;4861980;29;20047;-45
2022/01/25 05:18:14;;;;;;;47.92;42.58;;;;;;;5.14;83.94;103296.44;4860882;29;20113;-46
2022/01/25 05:23:28;;;;;;;47.42;42.08;;;;;;;5.09;85.10;103299.66;4861835;29;20054;-47
2022/01/25 05:25:56;;;;;;;44.58;39.88;;;;;;;5.07;85.44;103300.84;4861282;29;20053;-48
2022/01/25 05:28:23;;;;;;;44.35;39.65;;;;;;;5.11;85.77;103296.78;4861350;29;20049;-44
2022/01/25 05:30:51;;;;;;;45.47;40.58;;;;;;;5.19;86.00;103287.81;4861208;29;20496;-44
2022/01/25 05:33:19;;;;;;;47.95;42.88;;;;;;;5.25;85.80;103288.00;4861737;29;20067;-43
2022/01/25 05:35:46;;;;;;;46.70;41.78;;;;;;;5.26;85.38;103300.47;4862988;29;20447;-44
2022/01/25 05:38:14;;;;;;;46.00;41.20;;;;;;;5.22;85.39;103293.75;4863955;29;20491;-44
2022/01/25 05:40:48;;;;;;;46.40;41.22;;;;;;;5.17;85.71;103296.13;4861489;29;20105;-49
2022/01/25 05:48:23;;;;;;;44.70;39.92;;;;;;;5.19;86.30;103294.06;4843101;29;20054;-48
2022/01/25 05:50:51;;;;;;;52.60;44.38;;;;;;;5.24;85.34;103289.03;4854192;29;20520;-46
2022/01/25 05:53:19;;;;;;;51.70;45.80;;;;;;;5.26;84.62;103294.22;4860734;29;20046;-46
2022/01/25 05:55:47;;;;;;;52.20;44.35;;;;;;;5.22;84.50;103306.41;4860796;29;20117;-46
2022/01/25 05:58:14;;;;;;;45.60;40.58;;;;;;;5.14;84.92;103296.44;4861159;29;20053;-48
2022/01/25 06:00:42;;;;;;;44.05;39.35;;;;;;;5.15;85.50;103297.28;4860714;29;20057;-45
2022/01/25 06:03:12;;;;;;;49.75;43.05;;;;;;;5.18;85.69;103295.09;4861180;29;20046;-46
2022/01/25 06:05:40;;;;;;;46.75;41.65;;;;;;;5.13;85.57;103289.38;4859880;29;20045;-46
2022/01/25 06:08:07;;;;;;;49.60;42.38;;;;;;;5.13;85.92;103292.06;4860442;29;20045;-48
2022/01/25 06:10:35;;;;;;;46.42;40.60;;;;;;;5.12;85.90;103287.66;4859519;29;20049;-46
2022/01/25 06:13:03;;;;;;;48.90;42.58;;;;;;;5.10;85.71;103289.72;4860717;29;20053;-48
2022/01/25 06:15:31;;;;;;;46.63;41.45;;;;;;;5.09;85.97;103282.59;4860894;29;20053;-47
2022/01/25 06:17:59;;;;;;;54.80;48.78;;;;;;;5.07;85.38;103285.47;4860513;29;20037;-44
2022/01/25 06:20:28;;;;;;;56.30;50.15;;;;;;;5.07;84.55;103293.56;4860959;29;20064;-44
2022/01/25 06:22:56;;;;;;;61.08;53.22;;;;;;;5.12;84.04;103288.53;4859911;29;20049;-44
2022/01/25 06:25:24;;;;;;;66.43;58.55;;;;;;;5.17;82.98;103290.72;4860689;29;20517;-43
2022/01/25 06:27:52;;;;;;;62.80;55.90;;;;;;;5.15;81.35;103279.22;4860250;29;20083;-43
2022/01/25 06:30:20;;;;;;;64.15;53.30;;;;;;;5.11;81.57;103292.22;4862510;29;20049;-43
2022/01/25 06:32:48;;;;;;;61.53;54.67;;;;;;;5.06;81.76;103294.59;4864274;29;20124;-43
2022/01/25 06:35:17;;;;;;;59.70;48.50;;;;;;;5.02;82.50;103287.84;4864698;29;20068;-44
2022/01/25 06:37:45;;;;;;;57.72;49.15;;;;;;;4.98;82.66;103285.66;4864223;29;20446;-44
2022/01/25 06:40:14;;;;;;;59.25;50.03;;;;;;;4.93;83.00;103294.28;4864614;29;20060;-47
2022/01/25 06:42:41;;;;;;;57.05;50.70;;;;;;;4.91;82.92;103293.59;4864193;29;20056;-43
2022/01/25 06:45:14;;;;;;;56.10;49.60;;;;;;;4.86;83.87;103299.50;4864852;29;20057;-44
2022/01/25 06:47:42;;;;;;;57.25;49.58;;;;;;;4.88;84.14;103289.38;4863946;29;20520;-45
2022/01/25 06:50:11;;;;;;;52.78;47.03;;;;;;;4.85;83.95;103295.09;4864184;29;20405;-48
2022/01/25 06:52:41;;;;;;;54.90;46.72;;;;;;;4.86;84.33;103293.28;4862410;29;20053;-47
2022/01/25 06:55:20;;;;;;;54.63;48.55;;;;;;;4.93;84.67;103304.22;4863838;29;20524;-44
2022/01/25 06:57:48;;;;;;;60.53;51.78;;;;;;;4.94;83.30;103304.06;4863847;29;20098;-43
2022/01/25 07:00:21;;;;;;;65.20;56.53;;;;;;;4.95;82.72;103308.44;4862922;29;20064;-44
2022/01/25 07:02:48;;;;;;;68.95;58.75;;;;;;;4.96;82.25;103304.75;4863906;29;20046;-44
2022/01/25 07:05:16;;;;;;;68.68;59.72;;;;;;;4.98;81.33;103302.72;4863355;29;20500;-47
2022/01/25 07:07:45;;;;;;;75.40;60.88;;;;;;;4.93;80.78;103307.78;4863825;29;20055;-48
2022/01/25 07:10:12;;;;;;;68.97;60.42;;;;;;;4.92;81.48;103297.97;4863399;29;20050;-48
2022/01/25 07:12:40;;;;;;;75.47;62.88;;;;;;;4.92;81.41;103303.38;4863552;29;20461;-45
2022/01/25 07:15:08;;;;;;;67.68;60.25;;;;;;;4.92;81.57;103306.09;4863095;29;20041;-44
2022/01/25 07:17:35;;;;;;;68.65;60.80;;;;;;;4.96;81.21;103309.31;4863654;29;20056;-45
2022/01/25 07:20:06;;;;;;;71.70;57.05;;;;;;;4.99;80.99;103309.81;4863380;29;20045;-49
2022/01/25 07:22:34;;;;;;;74.10;62.70;;;;;;;4.88;79.87;103313.69;4863206;29;20439;-47
2022/01/25 07:25:04;;;;;;;74.30;63.72;;;;;;;4.84;79.71;103315.03;4187592;29;10000621;-47
2022/01/25 07:27:31;;;;;;;71.78;62.88;;;;;;;4.79;79.94;103313.88;4860185;29;20136;-45
2022/01/25 07:29:59;;;;;;;77.65;65.63;;;;;;;4.76;79.97;103308.78;4860083;29;20064;-46
2022/01/25 07:32:27;;;;;;;77.05;64.93;;;;;;;4.65;79.96;103308.09;4860190;29;20053;-47
2022/01/25 07:34:55;;;;;;;79.85;66.72;;;;;;;4.53;79.87;103325.63;4860010;29;20080;-45
2022/01/25 07:37:25;;;;;;;80.35;67.72;;;;;;;4.53;80.01;103328.34;4860318;29;20053;-45
2022/01/25 07:40:05;;;;;;;76.53;66.85;;;;;;;4.59;80.11;103324.94;4859674;29;20057;-45
2022/01/25 07:42:39;;;;;;;75.32;66.13;;;;;;;4.64;80.30;103325.31;4859898;29;20097;-50
2022/01/25 07:45:11;;;;;;;75.55;62.92;;;;;;;4.69;80.29;103320.25;4859567;29;20061;-46
2022/01/25 07:47:39;;;;;;;77.65;64.03;;;;;;;4.77;79.91;103307.78;4859774;29;20054;-49
2022/01/25 07:50:10;;;;;;;69.28;61.63;;;;;;;4.82;80.34;103318.94;4859651;29;20053;-47
2022/01/25 07:52:41;;;;;;;75.00;65.43;;;;;;;4.86;79.62;103315.72;4859698;29;20046;-46
2022/01/25 07:55:09;;;;;;;70.80;62.40;;;;;;;4.88;79.48;103307.44;4860009;29;20052;-49
2022/01/25 07:57:37;;;;;;;78.15;67.07;;;;;;;4.93;79.91;103317.72;4859715;29;20045;-47
2022/01/25 08:00:05;;;;;;;83.03;68.40;;;;;;;4.95;79.50;103321.13;4859146;29;20471;-44
2022/01/25 08:02:41;;;;;;;79.90;65.65;;;;;;;4.95;79.74;103308.44;4859327;29;20056;-46
2022/01/25 08:05:09;;;;;;;74.82;66.63;;;;;;;4.97;79.67;103311.81;4860686;29;20688;-48
2022/01/25 08:07:36;;;;;;;74.78;64.13;;;;;;;4.95;79.78;103318.41;4861939;29;20501;-48
2022/01/25 08:10:13;;;;;;;;;;;;;;;4.93;79.75;103315.03;4863007;29;20064;-44
2022/01/25 08:12:43;;;;;;;63.22;55.33;;;;;;;4.87;79.91;103321.97;4861542;29;19971;-46
2022/01/25 08:15:11;;;;;;;65.18;56.83;;;;;;;4.88;80.34;103318.22;4862020;29;20046;-47
2022/01/25 08:17:44;;;;;;;64.80;57.60;;;;;;;4.90;80.44;103321.63;4862270;29;20054;-47
2022/01/25 08:20:31;;;;;;;65.30;55.03;;;;;;;4.92;80.46;103322.28;4804883;29;20066;-46
2022/01/25 08:23:00;;;;;;;61.17;53.63;;;;;;;4.91;80.75;103328.72;4804384;29;20073;-48
2022/01/25 08:25:52;;;;;;;65.68;55.63;;;;;;;4.85;80.59;103321.28;4804819;29;20096;-46
2022/01/25 08:28:23;;;;;;;68.05;59.00;;;;;;;4.83;80.46;103320.59;4805088;29;20490;-45
2022/01/25 08:30:55;;;;;;;66.68;59.25;;;;;;;4.81;79.97;103318.09;4803081;29;20047;-44
2022/01/25 08:33:27;;;;;;;74.75;62.45;;;;;;;4.70;80.02;103324.66;4805232;29;20056;-46
2022/01/25 08:35:55;;;;;;;77.82;63.35;;;;;;;4.59;79.77;103324.94;4805289;29;20050;-45
2022/01/25 08:38:25;;;;;;;72.45;63.60;;;;;;;4.55;80.39;103328.19;4805159;29;20069;-45
2022/01/25 08:41:08;;;;;;;72.97;63.17;;;;;;;4.53;79.41;103332.91;4804826;29;20761;-46
2022/01/25 08:43:44;;;;;;;72.97;62.10;;;;;;;4.48;79.72;103330.69;4804833;29;20117;-49
2022/01/25 08:46:14;;;;;;;72.82;61.05;;;;;;;4.47;80.14;103331.69;4790031;29;20078;-48
2022/01/25 08:48:47;;;;;;;70.93;61.28;;;;;;;4.55;80.38;103334.41;4804721;29;20050;-47
2022/01/25 08:51:18;;;;;;;70.28;61.08;;;;;;;4.68;79.86;103329.34;4804462;29;20137;-44
2022/01/25 08:53:54;;;;;;;;;;;;;;;4.79;80.20;103332.78;4804516;29;20058;-45
2022/01/25 08:56:28;;;;;;;68.72;60.33;;;;;;;4.85;78.79;103329.38;4808891;29;19936;-46
2022/01/25 08:59:03;;;;;;;70.38;60.55;;;;;;;4.84;78.39;103328.53;4861432;29;20102;-43
2022/01/25 09:01:30;;;;;;;67.38;58.83;;;;;;;4.80;78.36;103335.28;4859563;29;20067;-46
2022/01/25 09:04:00;;;;;;;70.35;58.50;;;;;;;4.69;78.80;103333.78;4844358;29;20046;-46
2022/01/25 09:06:28;;;;;;;64.85;57.75;;;;;;;4.63;79.28;103337.13;4861950;29;20077;-47
2022/01/25 09:09:01;;;;;;;67.88;58.33;;;;;;;4.54;80.11;103338.13;4844552;29;20061;-46
2022/01/25 09:11:29;;;;;;;69.00;59.13;;;;;;;4.63;80.41;103342.53;4861632;29;20053;-48
2022/01/25 09:13:57;;;;;;;77.25;63.50;;;;;;;4.68;80.34;103345.56;4844826;29;20053;-46
2022/01/25 09:16:24;;;;;;;71.10;61.50;;;;;;;4.73;79.97;103346.94;4860996;29;20082;-45
2022/01/25 09:18:52;;;;;;;72.15;60.95;;;;;;;4.76;79.26;103346.59;4861276;29;20091;-46
2022/01/25 09:21:20;;;;;;;76.60;64.13;;;;;;;4.81;79.31;103344.22;4861122;29;20052;-45
2022/01/25 09:23:48;;;;;;;72.00;63.10;;;;;;;4.87;79.09;103352.50;4859682;29;20048;-46
2022/01/25 09:26:17;;;;;;;79.50;65.45;;;;;;;4.94;78.85;103344.59;4861350;29;20056;-46
2022/01/25 09:28:44;;;;;;;76.28;59.65;;;;;;;4.95;78.61;103351.66;4860456;29;20049;-43
2022/01/25 09:31:12;;;;;;;62.50;53.75;;;;;;;4.98;78.85;103355.88;4860755;29;20042;-48
2022/01/25 09:33:40;;;;;;;69.88;61.67;;;;;;;4.99;78.93;103355.72;4860561;29;20519;-45
2022/01/25 09:36:07;;;;;;;72.97;62.75;;;;;;;5.00;78.38;103357.41;4860892;29;20041;-46
2022/01/25 09:38:35;;;;;;;66.32;55.53;;;;;;;5.00;78.78;103352.00;4860792;29;20050;-45
2022/01/25 09:41:03;;;;;;;77.80;62.00;;;;;;;4.96;77.84;103361.47;4860616;29;20049;-49
2022/01/25 09:43:31;;;;;;;75.32;64.05;;;;;;;4.89;78.05;103357.75;4860384;29;20185;-52
2022/01/25 09:45:59;;;;;;;73.85;64.50;;;;;;;4.85;78.43;103359.09;4861108;29;20044;-48
2022/01/25 09:48:27;;;;;;;78.47;64.75;;;;;;;4.80;78.89;103366.84;4860385;29;20041;-48
2022/01/25 09:50:57;;;;;;;69.53;59.08;;;;;;;4.66;78.98;103358.38;4860409;29;20053;-48
2022/01/25 09:53:25;;;;;;;67.28;56.05;;;;;;;4.58;79.75;103363.78;4860103;29;20057;-47
2022/01/25 09:55:53;;;;;;;63.47;54.25;;;;;;;4.45;79.75;103360.72;4861240;29;20188;-47
2022/01/25 09:58:21;;;;;;;64.18;55.67;;;;;;;4.46;80.78;103362.41;4860186;29;20037;-48
2022/01/25 10:00:55;;;;;;;71.13;58.90;;;;;;;4.56;80.91;103363.09;4860391;29;20076;-45
2022/01/25 10:03:31;;;;;;;69.10;55.20;;;;;;;4.69;81.60;103368.03;4859527;29;20508;-48
2022/01/25 10:06:02;;;;;;;78.75;62.70;;;;;;;4.82;80.07;103372.94;4854896;29;20046;-45
2022/01/25 10:08:33;;;;;;;82.97;64.10;;;;;;;4.85;79.22;103375.31;4860477;29;20504;-45
2022/01/25 10:11:06;;;;;;;75.82;63.83;;;;;;;4.82;78.80;103381.03;4860369;29;20041;-44
2022/01/25 10:13:43;;;;;;;77.57;63.45;;;;;;;4.71;78.59;103371.38;4860388;29;20132;-43
2022/01/25 10:16:17;;;;;;;78.35;65.40;;;;;;;4.61;79.82;103374.25;4860379;29;20113;-47
2022/01/25 10:18:50;;;;;;;81.38;65.63;;;;;;;4.57;80.22;103367.50;4860542;29;20076;-47
2022/01/25 10:21:32;;;;;;;79.75;66.78;;;;;;;4.56;79.96;103373.91;4859068;29;20048;-46
2022/01/25 10:24:10;;;;;;;74.82;65.18;;;;;;;4.60;80.25;103374.44;4860292;29;20042;-48
2022/01/25 10:26:44;;;;;;;70.85;59.03;;;;;;;4.67;80.18;103375.47;4860732;29;20084;-47
2022/01/25 10:29:15;;;;;;;74.13;61.92;;;;;;;4.69;79.42;103374.28;4843962;29;20052;-46
2022/01/25 10:31:46;;;;;;;71.45;61.38;;;;;;;4.68;80.14;103369.88;4843654;29;20057;-46
2022/01/25 10:34:16;;;;;;;81.05;68.53;;;;;;;4.58;79.65;103368.34;4860076;29;20120;-48
2022/01/25 10:36:47;;;;;;;79.95;66.43;;;;;;;4.60;80.01;103369.03;4860742;29;20057;-46
2022/01/25 10:39:23;;;;;;;76.35;65.10;;;;;;;4.64;79.74;103365.84;4860301;29;20049;-48
2022/01/25 10:41:51;;;;;;;75.05;65.00;;;;;;;4.69;79.59;103365.34;4859121;29;20060;-50
2022/01/25 10:44:19;;;;;;;82.18;62.92;;;;;;;4.72;79.70;103362.28;4860289;29;20493;-50
2022/01/25 10:46:48;;;;;;;76.68;65.10;;;;;;;4.73;79.13;103363.13;4859929;29;20404;-49
2022/01/25 10:49:15;;;;;;;79.68;63.78;;;;;;;4.74;79.42;103370.22;4860191;29;20045;-50
2022/01/25 10:51:47;;;;;;;70.68;61.28;;;;;;;4.78;79.09;103361.63;4860166;29;20052;-49
2022/01/25 10:54:21;;;;;;;75.43;63.28;;;;;;;4.80;78.77;103364.16;4859068;29;20049;-48
2022/01/25 10:56:54;;;;;;;76.60;64.03;;;;;;;4.78;79.39;103361.63;4860323;29;20511;-46
2022/01/25 10:59:24;;;;;;;75.05;61.88;;;;;;;4.72;79.19;103366.84;4860464;29;20034;-47
2022/01/25 11:01:54;;;;;;;65.88;50.17;;;;;;;4.75;79.81;103366.53;4858864;29;20061;-47
2022/01/25 11:04:30;;;;;;;66.43;55.33;;;;;;;4.84;78.86;103360.97;4859118;29;20041;-47
2022/01/25 11:07:06;;;;;;;64.80;54.22;;;;;;;4.80;78.57;103365.00;4839180;29;20029;-45
2022/01/25 11:09:38;;;;;;;;;;;;;;;4.78;78.66;103366.19;4860972;29;20041;-46
2022/01/25 11:12:09;;;;;;;75.78;63.95;;;;;;;4.82;78.91;103364.84;4860818;29;20371;-47
2022/01/25 11:14:56;;;;;;;70.72;60.90;;;;;;;4.83;79.04;103371.91;4860260;29;20073;-47
2022/01/25 11:17:27;;;;;;;72.40;62.28;;;;;;;4.88;78.76;103369.56;4863513;29;20386;-49
2022/01/25 11:19:56;;;;;;;75.10;63.05;;;;;;;4.85;78.46;103369.91;4864081;29;20046;-52
2022/01/25 11:22:24;;;;;;;77.07;63.67;;;;;;;4.82;78.29;103367.53;4863848;29;20405;-48
2022/01/25 11:24:54;;;;;;;78.72;63.63;;;;;;;4.75;78.58;103367.34;4862709;29;20065;-48
2022/01/25 11:27:23;;;;;;;80.30;64.05;;;;;;;4.76;78.64;103371.72;4846938;29;20073;-47
2022/01/25 11:29:54;;;;;;;69.38;59.03;;;;;;;4.83;79.37;103366.50;4862850;29;20057;-46
2022/01/25 11:32:27;;;;;;;74.30;61.17;;;;;;;4.88;77.85;103372.25;4847078;29;20102;-49
2022/01/25 11:34:56;;;;;;;77.80;64.50;;;;;;;4.88;77.97;103373.13;4525490;29;10000048;-44
2022/01/25 11:37:35;;;;;;;77.82;63.13;;;;;;;4.87;78.15;103370.59;4858881;29;20061;-46
2022/01/25 11:40:08;;;;;;;72.03;60.00;;;;;;;4.81;77.86;103371.22;4859978;29;20045;-49
2022/01/25 11:42:39;;;;;;;71.47;56.70;;;;;;;4.73;78.04;103374.78;4843663;29;20056;-46
2022/01/25 11:45:12;;;;;;;77.25;64.95;;;;;;;4.76;78.12;103373.59;4860054;29;20049;-47
2022/01/25 11:47:40;;;;;;;73.82;60.67;;;;;;;4.77;77.86;103369.91;4859969;29;20136;-45
2022/01/25 11:50:12;;;;;;;65.65;54.35;;;;;;;4.79;78.58;103363.31;4859989;29;20128;-46
2022/01/25 11:52:48;;;;;;;72.53;58.40;;;;;;;4.88;78.14;103372.25;4859993;29;20049;-44
2022/01/25 11:55:27;;;;;;;79.82;63.15;;;;;;;4.94;78.51;103376.16;4859733;29;20056;-49
2022/01/25 11:57:58;;;;;;;68.40;59.33;;;;;;;4.94;77.76;103371.59;4859400;29;20424;-46
2022/01/25 12:00:45;;;;;;;71.80;60.42;;;;;;;4.87;77.57;103371.41;4858582;29;20068;-48
2022/01/25 12:03:25;;;;;;;66.45;54.97;;;;;;;4.82;78.69;103364.84;4859818;29;20041;-51
2022/01/25 12:06:02;;;;;;;76.13;62.15;;;;;;;4.84;78.13;103362.81;4859962;29;20044;-48
2022/01/25 12:09:06;;;;;;;77.88;62.35;;;;;;;4.80;78.18;103359.59;4858939;29;20045;-49
2022/01/25 12:12:07;;;;;;;77.22;63.00;;;;;;;4.73;78.83;103353.16;4859565;29;20789;-47
2022/01/25 12:14:50;;;;;;;72.75;60.20;;;;;;;4.62;78.86;103342.72;4859831;29;20053;-44
2022/01/25 12:17:24;;;;;;;73.78;61.55;;;;;;;4.68;79.13;103344.72;4859477;29;20136;-50
2022/01/25 12:20:02;;;;;;;73.78;61.88;;;;;;;4.69;78.66;103341.03;4842521;29;20050;-48
2022/01/25 12:22:41;;;;;;;76.55;61.28;;;;;;;4.61;78.92;103344.53;4859543;29;20050;-49
2022/01/25 12:25:31;;;;;;;72.30;60.90;;;;;;;4.54;79.45;103337.28;4859601;29;20053;-47
2022/01/25 12:28:06;;;;;;;69.55;56.55;;;;;;;4.63;79.20;103337.13;4859295;29;20041;-48
2022/01/25 12:30:43;;;;;;;71.70;58.75;;;;;;;4.68;78.30;103334.75;4859100;29;20060;-47
2022/01/25 12:33:24;;;;;;;75.50;62.53;;;;;;;4.74;77.74;103332.41;4859260;29;20060;-44
2022/01/25 12:35:54;;;;;;;71.15;59.88;;;;;;;4.72;77.90;103329.06;4859254;29;20050;-47
2022/01/25 12:38:43;;;;;;;74.55;59.83;;;;;;;4.73;78.40;103328.03;4859323;29;20460;-47
2022/01/25 12:41:27;;;;;;;76.35;59.50;;;;;;;4.77;77.84;103324.00;4840922;29;20053;-43
2022/01/25 12:43:59;;;;;;;75.32;61.90;;;;;;;4.81;78.24;103325.31;4840850;29;20513;-46
2022/01/25 12:46:34;;;;;;;71.03;60.38;;;;;;;4.78;78.27;103326.50;4840856;29;20501;-47
2022/01/25 12:49:05;;;;;;;77.82;61.00;;;;;;;4.79;78.13;103319.25;4841299;29;20459;-43
2022/01/25 12:51:35;;;;;;;74.80;59.20;;;;;;;4.83;77.73;103323.28;4858550;29;20741;-43
2022/01/25 12:54:08;;;;;;;68.93;58.65;;;;;;;4.80;77.69;103321.78;4858946;29;20630;-45
2022/01/25 12:56:57;;;;;;;71.95;58.53;;;;;;;4.82;77.11;103316.22;4859073;29;20060;-47
2022/01/25 12:59:29;;;;;;;72.88;58.90;;;;;;;4.77;77.45;103307.78;4859081;29;20111;-44
2022/01/25 13:01:58;;;;;;;70.22;58.65;;;;;;;4.74;77.58;103317.06;4841637;29;20065;-47
2022/01/25 13:04:26;;;;;;;71.38;58.55;;;;;;;4.69;76.90;103304.06;4858796;29;20053;-49
2022/01/25 13:06:53;;;;;;;71.35;58.33;;;;;;;4.66;78.28;103304.38;4842409;29;20041;-44
2022/01/25 13:09:27;;;;;;;72.22;59.13;;;;;;;4.65;77.51;103301.88;4858229;29;20045;-43
2022/01/25 13:17:12;;;;;;;81.07;60.15;;;;;;;4.55;77.76;103302.03;4858585;29;20136;-44
2022/01/25 13:19:46;;;;;;;74.20;61.42;;;;;;;4.63;77.73;103293.91;4858191;29;20057;-45
2022/01/25 13:22:35;;;;;;;75.47;59.67;;;;;;;4.69;77.64;103295.97;4858497;29;20050;-43
2022/01/25 13:25:42;;;;;;;79.88;59.83;;;;;;;4.68;77.73;103291.56;4858220;29;20535;-44
2022/01/25 13:28:22;;;;;;;69.63;57.88;;;;;;;4.71;77.49;103290.38;4858388;29;20089;-47